Time;durP1;ratioP1;P1;durP2;ratioP2;P2;SDS_P1;SDS_P2;PMS_P1;PMS_P2;Temp;Humidity;BMP_temperature;BMP_pressure;BME280_temperature;BME280_humidity;BME280_pressure;Samples;Min_cycle;Max_cycle;Signal;HPM_P1;HPM_P2
2022/10/13 00:00:11;;;;;;;30.60;18.23;;;8.20;99.90;;;;;;5033855;28;20189;-70
2022/10/13 00:02:36;;;;;;;20.63;9.67;;;8.20;99.90;;;;;;5043541;28;20537;-71
2022/10/13 00:05:02;;;;;;;15.60;8.53;;;8.30;99.90;;;;;;5037455;28;20650;-71
2022/10/13 00:07:28;;;;;;;8.03;6.13;;;8.30;99.90;;;;;;5045814;28;20176;-71
2022/10/13 00:09:53;;;;;;;13.47;8.90;;;8.20;99.90;;;;;;5033611;28;20438;-71
2022/10/13 00:12:19;;;;;;;14.63;8.90;;;8.20;99.90;;;;;;5040401;28;20647;-71
2022/10/13 00:14:44;;;;;;;10.20;6.20;;;8.20;99.90;;;;;;5034391;28;20176;-71
2022/10/13 00:17:10;;;;;;;10.00;6.77;;;8.20;99.90;;;;;;5032460;28;20179;-71
2022/10/13 00:19:35;;;;;;;11.50;6.97;;;8.20;99.90;;;;;;5033588;28;20262;-71
2022/10/13 00:22:01;;;;;;;23.43;14.50;;;8.20;99.90;;;;;;5033636;28;21624;-71
2022/10/13 00:24:26;;;;;;;12.27;8.00;;;8.20;99.90;;;;;;5033239;28;20209;-72
2022/10/13 00:26:52;;;;;;;6.53;4.87;;;8.20;99.90;;;;;;5035702;28;20234;-71
2022/10/13 00:29:17;;;;;;;23.67;12.37;;;8.20;99.90;;;;;;5036008;28;20198;-71
2022/10/13 00:31:43;;;;;;;9.80;5.97;;;8.30;99.90;;;;;;5031407;28;20272;-71
2022/10/13 00:34:08;;;;;;;8.53;5.17;;;8.20;99.90;;;;;;5034483;28;20174;-71
2022/10/13 00:36:34;;;;;;;31.13;17.43;;;8.20;99.90;;;;;;5037229;28;20179;-71
2022/10/13 00:38:59;;;;;;;14.03;7.13;;;8.20;99.90;;;;;;5031322;28;21812;-71
2022/10/13 00:41:25;;;;;;;13.27;7.17;;;8.20;99.90;;;;;;5035899;28;20234;-71
2022/10/13 00:44:06;;;;;;;19.53;7.27;;;8.20;99.90;;;;;;5051094;28;20222;-71
2022/10/13 00:46:36;;;;;;;10.23;6.47;;;8.20;99.90;;;;;;5014930;28;20442;-70
2022/10/13 00:49:13;;;;;;;24.53;13.13;;;8.10;99.90;;;;;;5042544;28;20948;-71
2022/10/13 00:51:43;;;;;;;15.90;7.10;;;8.10;99.90;;;;;;5049540;28;20409;-70
2022/10/13 00:54:12;;;;;;;9.90;5.10;;;8.10;99.90;;;;;;5046366;28;20411;-70
2022/10/13 00:56:41;;;;;;;14.83;9.00;;;8.00;99.90;;;;;;5046018;28;20445;-70
2022/10/13 00:59:21;;;;;;;10.73;4.80;;;8.00;99.90;;;;;;5044820;28;20438;-70
2022/10/13 01:01:48;;;;;;;14.50;8.40;;;8.00;99.90;;;;;;5044391;28;20553;-70
2022/10/13 01:04:15;;;;;;;10.50;7.60;;;8.00;99.90;;;;;;5037393;28;20409;-70
2022/10/13 01:06:41;;;;;;;16.23;8.40;;;8.00;99.90;;;;;;5050564;28;20508;-70
2022/10/13 01:09:06;;;;;;;10.23;6.30;;;8.00;99.90;;;;;;5047437;28;20426;-70
2022/10/13 01:12:14;;;;;;;14.20;5.03;;;7.90;99.90;;;;;;5038122;28;20197;-70
2022/10/13 01:14:53;;;;;;;8.90;5.53;;;7.90;99.90;;;;;;5037679;28;20638;-70
2022/10/13 01:17:53;;;;;;;10.20;5.87;;;7.90;99.90;;;;;;5054788;28;20402;-71
2022/10/13 01:20:22;;;;;;;8.50;5.63;;;7.80;99.90;;;;;;5034891;28;20450;-70
2022/10/13 01:23:09;;;;;;;7.63;4.30;;;7.80;99.90;;;;;;5054718;28;20485;-72
2022/10/13 01:25:35;;;;;;;13.80;6.47;;;7.80;99.90;;;;;;5049176;28;20990;-72
2022/10/13 01:28:04;;;;;;;9.17;6.47;;;7.80;99.90;;;;;;5040537;28;20419;-71
2022/10/13 01:30:36;;;;;;;7.17;5.30;;;7.80;99.90;;;;;;5042716;28;20202;-71
2022/10/13 01:33:17;;;;;;;6.37;5.73;;;7.80;99.90;;;;;;5054504;28;20406;-71
2022/10/13 01:35:55;;;;;;;8.47;5.03;;;7.80;99.90;;;;;;5054059;28;20911;-71
2022/10/13 01:38:53;;;;;;;7.60;5.13;;;7.70;99.90;;;;;;5054464;28;20399;-71
2022/10/13 01:41:28;;;;;;;6.97;4.70;;;7.70;99.90;;;;;;5054266;28;20423;-71
2022/10/13 01:43:59;;;;;;;11.63;7.53;;;7.70;99.90;;;;;;5054202;28;20490;-72
2022/10/13 01:46:45;;;;;;;14.80;8.70;;;7.70;99.90;;;;;;5053994;28;20548;-71
2022/10/13 01:49:14;;;;;;;9.03;6.80;;;7.70;99.90;;;;;;5054222;28;20421;-71
2022/10/13 01:51:41;;;;;;;13.53;6.87;;;7.70;99.90;;;;;;5053937;28;20913;-71
2022/10/13 01:54:06;;;;;;;9.20;5.90;;;7.70;99.90;;;;;;5053901;28;20407;-71
2022/10/13 01:56:32;;;;;;;8.53;4.60;;;7.70;99.90;;;;;;5052315;28;20510;-71
2022/10/13 01:59:10;;;;;;;7.90;5.07;;;7.60;99.90;;;;;;5054081;28;20166;-71
2022/10/13 02:01:55;;;;;;;13.33;5.40;;;7.60;99.90;;;;;;5053816;28;20176;-71
2022/10/13 02:04:32;;;;;;;6.20;5.23;;;7.60;99.90;;;;;;5034054;28;20410;-71
2022/10/13 02:07:02;;;;;;;7.53;5.40;;;7.60;99.90;;;;;;5044071;28;20828;-71
2022/10/13 02:09:53;;;;;;;7.50;5.00;;;7.50;99.90;;;;;;5040924;28;20798;-71
2022/10/13 02:12:28;;;;;;;14.13;5.90;;;7.60;99.90;;;;;;5034730;28;20402;-71
2022/10/13 02:14:55;;;;;;;6.57;4.60;;;7.60;99.90;;;;;;5043593;28;20489;-71
2022/10/13 02:17:21;;;;;;;8.07;5.47;;;7.50;99.90;;;;;;5053700;28;20416;-71
2022/10/13 02:19:47;;;;;;;15.70;4.63;;;7.50;99.90;;;;;;5053682;28;20435;-71
2022/10/13 02:22:15;;;;;;;8.67;5.07;;;7.60;99.90;;;;;;5039931;28;20417;-71
2022/10/13 02:24:40;;;;;;;12.77;5.80;;;7.50;99.90;;;;;;5053280;28;20203;-71
2022/10/13 02:27:07;;;;;;;11.53;6.50;;;7.50;99.90;;;;;;5053347;28;20923;-71
2022/10/13 02:29:33;;;;;;;12.67;5.77;;;7.50;99.90;;;;;;5053424;28;20224;-71
2022/10/13 02:31:59;;;;;;;13.97;7.00;;;7.50;99.90;;;;;;5043519;28;20484;-71
2022/10/13 02:34:24;;;;;;;8.90;4.77;;;7.50;99.90;;;;;;5044131;28;20488;-71
2022/10/13 02:36:50;;;;;;;12.00;6.50;;;7.50;99.90;;;;;;5051762;28;21015;-71
2022/10/13 02:39:16;;;;;;;13.37;8.40;;;7.40;99.90;;;;;;5046372;28;20677;-71
2022/10/13 02:41:42;;;;;;;11.43;6.63;;;7.40;99.90;;;;;;5053377;28;20168;-71
2022/10/13 02:44:08;;;;;;;7.03;4.60;;;7.50;99.90;;;;;;5053271;28;20417;-70
2022/10/13 02:46:34;;;;;;;8.30;4.90;;;7.40;99.90;;;;;;5052875;28;20498;-71
2022/10/13 02:48:59;;;;;;;9.93;5.50;;;7.40;99.90;;;;;;5051605;28;20456;-71
2022/10/13 02:51:25;;;;;;;16.10;6.80;;;7.40;99.90;;;;;;5047602;28;20420;-71
2022/10/13 02:53:51;;;;;;;10.80;5.80;;;7.40;99.90;;;;;;5053123;28;20167;-70
2022/10/13 02:56:18;;;;;;;10.00;6.30;;;7.30;99.90;;;;;;5047880;28;20172;-70
2022/10/13 02:58:43;;;;;;;9.00;6.10;;;7.30;99.90;;;;;;5034632;28;20167;-70
2022/10/13 03:01:11;;;;;;;10.43;7.23;;;7.30;99.90;;;;;;5044809;28;20444;-71
2022/10/13 03:03:37;;;;;;;8.13;5.47;;;7.30;99.90;;;;;;5038203;28;20169;-70
2022/10/13 03:06:04;;;;;;;9.60;6.10;;;7.30;99.90;;;;;;5035820;28;20467;-71
2022/10/13 03:08:32;;;;;;;13.67;6.20;;;7.20;99.90;;;;;;5048601;28;20447;-71
2022/10/13 03:10:57;;;;;;;8.77;5.60;;;7.20;99.90;;;;;;5043634;28;20437;-71
2022/10/13 03:13:23;;;;;;;6.47;4.73;;;7.20;99.90;;;;;;5052920;28;20923;-71
2022/10/13 03:15:48;;;;;;;6.40;5.27;;;7.20;99.90;;;;;;5052804;28;20297;-72
2022/10/13 03:18:14;;;;;;;8.37;5.40;;;7.20;99.90;;;;;;5053856;28;20168;-72
2022/10/13 03:20:40;;;;;;;8.93;6.67;;;7.20;99.90;;;;;;5049638;28;20187;-71
2022/10/13 03:23:06;;;;;;;11.70;6.23;;;7.20;99.90;;;;;;5045192;28;20197;-71
2022/10/13 03:25:32;;;;;;;7.03;5.90;;;7.20;99.90;;;;;;5052963;28;20447;-71
2022/10/13 03:27:57;;;;;;;9.07;6.10;;;7.10;99.90;;;;;;5054392;28;20578;-71
2022/10/13 03:30:23;;;;;;;7.43;5.10;;;7.20;99.90;;;;;;5054466;28;20430;-71
2022/10/13 03:32:49;;;;;;;8.33;7.23;;;7.20;99.90;;;;;;5041154;28;20737;-71
2022/10/13 03:35:14;;;;;;;9.67;5.07;;;7.20;99.90;;;;;;5046710;28;20258;-71
2022/10/13 03:37:40;;;;;;;9.73;5.70;;;7.10;99.90;;;;;;5043854;28;20259;-71
2022/10/13 03:40:06;;;;;;;10.33;5.87;;;7.20;99.90;;;;;;5052069;28;20281;-71
2022/10/13 03:42:34;;;;;;;6.53;5.07;;;7.20;99.90;;;;;;5052182;28;20163;-72
2022/10/13 03:45:00;;;;;;;11.07;7.40;;;7.20;99.90;;;;;;5051990;28;20422;-71
2022/10/13 03:47:25;;;;;;;9.30;6.23;;;7.20;99.90;;;;;;5051852;28;20406;-70
2022/10/13 03:49:53;;;;;;;11.73;5.40;;;7.20;99.90;;;;;;5043786;28;20214;-70
2022/10/13 03:52:19;;;;;;;10.73;6.80;;;7.10;99.90;;;;;;5052067;28;20182;-70
2022/10/13 03:54:45;;;;;;;11.17;5.77;;;7.10;99.90;;;;;;5051771;28;20410;-71
2022/10/13 03:57:11;;;;;;;7.97;5.30;;;7.10;99.90;;;;;;5039565;28;20525;-70
2022/10/13 03:59:39;;;;;;;6.90;5.23;;;7.10;99.90;;;;;;5033328;28;20229;-70
2022/10/13 04:02:05;;;;;;;8.80;6.00;;;7.20;99.90;;;;;;5049231;28;20183;-72
2022/10/13 04:04:31;;;;;;;6.37;5.17;;;7.20;99.90;;;;;;5033084;28;20840;-70
2022/10/13 04:06:56;;;;;;;7.33;5.80;;;7.20;99.90;;;;;;5042299;28;20459;-70
2022/10/13 04:09:22;;;;;;;10.00;5.57;;;7.30;99.90;;;;;;5039441;28;20671;-71
2022/10/13 04:11:52;;;;;;;8.13;5.73;;;7.20;99.90;;;;;;5048844;28;20174;-71
2022/10/13 04:14:19;;;;;;;9.60;5.77;;;7.30;99.90;;;;;;5051980;28;20497;-71
2022/10/13 04:16:45;;;;;;;9.43;5.70;;;7.30;99.90;;;;;;5051546;28;20414;-71
2022/10/13 04:19:12;;;;;;;9.60;5.93;;;7.40;99.90;;;;;;5051282;28;20503;-71
2022/10/13 04:21:38;;;;;;;7.63;5.37;;;7.40;99.90;;;;;;5038277;28;20422;-71
2022/10/13 04:24:04;;;;;;;18.37;8.00;;;7.40;99.90;;;;;;5050988;28;20414;-71
2022/10/13 04:26:33;;;;;;;11.93;5.80;;;7.40;99.90;;;;;;5050997;28;20186;-72
2022/10/13 04:29:00;;;;;;;11.53;7.00;;;7.50;99.90;;;;;;5051262;28;20413;-71
2022/10/13 04:31:28;;;;;;;6.10;5.27;;;7.50;99.90;;;;;;5042894;28;20434;-71
2022/10/13 04:33:54;;;;;;;7.37;5.10;;;7.50;99.90;;;;;;5039054;28;20501;-71
2022/10/13 04:36:20;;;;;;;13.00;7.10;;;7.50;99.90;;;;;;5051107;28;20429;-71
2022/10/13 04:38:49;;;;;;;13.40;6.57;;;7.50;99.90;;;;;;5041474;28;20172;-71
2022/10/13 04:41:16;;;;;;;7.07;6.03;;;7.50;99.90;;;;;;5051362;28;20413;-70
2022/10/13 04:43:42;;;;;;;7.67;5.63;;;7.50;99.90;;;;;;5051147;28;20951;-71
2022/10/13 04:46:22;;;;;;;6.63;5.67;;;7.50;99.90;;;;;;5051142;28;20449;-70
2022/10/13 04:48:49;;;;;;;10.07;6.23;;;7.60;99.90;;;;;;5050388;28;20463;-71
2022/10/13 04:51:18;;;;;;;10.07;5.70;;;7.60;99.90;;;;;;5043988;28;20406;-71
2022/10/13 04:53:44;;;;;;;11.50;6.50;;;7.60;99.90;;;;;;5051236;28;20398;-71
2022/10/13 04:56:12;;;;;;;9.50;6.47;;;7.60;99.90;;;;;;5047000;28;20442;-71
2022/10/13 04:58:39;;;;;;;6.70;6.00;;;7.60;99.90;;;;;;5032455;28;20734;-71
2022/10/13 05:01:07;;;;;;;8.60;6.30;;;7.70;99.90;;;;;;5042433;28;20439;-70
2022/10/13 05:03:32;;;;;;;8.97;6.37;;;7.60;99.90;;;;;;5050886;28;20852;-70
2022/10/13 05:05:58;;;;;;;6.40;5.60;;;7.70;99.90;;;;;;5049871;28;20445;-71
2022/10/13 05:08:24;;;;;;;8.27;5.80;;;7.70;99.90;;;;;;5051136;28;20168;-71
2022/10/13 05:10:58;;;;;;;20.03;6.77;;;7.70;99.90;;;;;;5050834;28;20180;-71
2022/10/13 05:13:25;;;;;;;7.27;5.60;;;7.80;99.90;;;;;;5050997;28;20405;-72
2022/10/13 05:15:51;;;;;;;9.87;5.93;;;7.80;99.90;;;;;;5050694;28;20406;-71
2022/10/13 05:18:16;;;;;;;9.07;7.20;;;7.80;99.90;;;;;;5051337;28;20432;-71
2022/10/13 05:20:45;;;;;;;9.37;6.10;;;7.80;99.90;;;;;;5053539;28;20430;-72
2022/10/13 05:23:11;;;;;;;13.67;6.40;;;7.80;99.90;;;;;;5052030;28;20167;-71
2022/10/13 05:25:37;;;;;;;11.87;6.17;;;7.80;99.90;;;;;;5050759;28;20461;-71
2022/10/13 05:28:06;;;;;;;10.40;6.77;;;7.80;99.90;;;;;;5050933;28;20627;-71
2022/10/13 05:30:32;;;;;;;9.90;6.17;;;7.90;99.90;;;;;;5049919;28;20186;-71
2022/10/13 05:32:58;;;;;;;13.10;5.90;;;7.90;99.90;;;;;;5035767;28;20929;-71
2022/10/13 05:35:25;;;;;;;12.10;6.93;;;7.90;99.90;;;;;;5044709;28;20591;-71
2022/10/13 05:37:51;;;;;;;9.77;6.90;;;7.90;99.90;;;;;;5040980;28;20419;-71
2022/10/13 05:40:16;;;;;;;9.67;7.47;;;7.90;99.90;;;;;;5050628;28;20575;-70
2022/10/13 05:42:42;;;;;;;9.87;6.83;;;8.00;99.90;;;;;;5050313;28;20248;-70
2022/10/13 05:45:09;;;;;;;10.23;6.67;;;8.00;99.90;;;;;;5050097;28;20176;-71
2022/10/13 05:47:44;;;;;;;7.73;5.80;;;8.10;99.90;;;;;;5050392;28;20255;-72
2022/10/13 05:50:10;;;;;;;10.33;6.90;;;8.00;99.90;;;;;;5008709;28;20444;-71
2022/10/13 05:52:36;;;;;;;10.40;6.40;;;8.00;99.90;;;;;;5050139;28;21194;-72
2022/10/13 05:55:04;;;;;;;7.53;6.17;;;8.10;99.90;;;;;;5049959;28;20200;-71
2022/10/13 05:57:42;;;;;;;14.53;6.70;;;8.10;99.90;;;;;;5036668;28;20767;-72
2022/10/13 06:00:12;;;;;;;13.13;7.67;;;8.10;99.90;;;;;;5034902;28;20472;-71
2022/10/13 06:02:52;;;;;;;10.50;6.33;;;8.20;99.90;;;;;;5052131;28;20768;-72
2022/10/13 06:05:20;;;;;;;13.90;6.37;;;8.40;99.90;;;;;;5053967;28;20982;-72
2022/10/13 06:07:51;;;;;;;15.57;7.20;;;8.40;99.90;;;;;;5053760;28;20422;-72
2022/10/13 06:10:17;;;;;;;12.07;7.03;;;8.30;99.90;;;;;;5035432;28;20483;-72
2022/10/13 06:12:43;;;;;;;12.90;6.50;;;8.30;99.90;;;;;;5041082;28;20518;-72
2022/10/13 06:15:09;;;;;;;9.47;6.53;;;8.30;99.90;;;;;;5053562;28;20238;-72
2022/10/13 06:17:43;;;;;;;8.07;5.83;;;8.30;99.90;;;;;;5053902;28;20539;-73
2022/10/13 06:20:09;;;;;;;9.50;5.90;;;8.30;99.90;;;;;;5020537;28;20516;-71
2022/10/13 06:22:37;;;;;;;14.77;6.97;;;8.20;99.90;;;;;;5053998;28;21000;-72
2022/10/13 06:25:04;;;;;;;11.13;7.30;;;8.20;99.90;;;;;;5053096;28;20413;-72
2022/10/13 06:27:31;;;;;;;11.70;5.93;;;8.30;99.90;;;;;;5053349;28;20402;-72
2022/10/13 06:29:56;;;;;;;8.33;6.50;;;8.30;99.90;;;;;;5054005;28;20427;-73
2022/10/13 06:32:22;;;;;;;8.40;6.23;;;8.30;99.90;;;;;;5043821;28;20476;-73
2022/10/13 06:34:48;;;;;;;10.40;6.00;;;8.30;99.90;;;;;;5036944;28;20276;-72
2022/10/13 06:37:13;;;;;;;13.10;7.53;;;8.40;99.90;;;;;;5037864;28;20637;-72
2022/10/13 06:39:39;;;;;;;10.20;5.80;;;8.40;99.90;;;;;;5049282;28;20469;-72
2022/10/13 06:42:04;;;;;;;9.90;6.50;;;8.50;99.90;;;;;;5052347;28;20221;-72
2022/10/13 06:44:31;;;;;;;7.57;6.50;;;8.50;99.90;;;;;;5032454;28;20177;-72
2022/10/13 06:46:57;;;;;;;9.57;6.20;;;8.60;99.90;;;;;;5032486;28;20291;-72
2022/10/13 06:49:23;;;;;;;15.07;6.57;;;8.90;99.90;;;;;;5042014;28;20967;-72
2022/10/13 06:51:48;;;;;;;15.63;6.83;;;8.90;99.90;;;;;;5050587;28;20232;-71
2022/10/13 06:54:14;;;;;;;11.83;6.70;;;8.90;99.90;;;;;;5050578;28;20740;-72
2022/10/13 06:56:39;;;;;;;14.33;7.10;;;8.90;99.90;;;;;;5032655;28;20180;-72
2022/10/13 06:59:06;;;;;;;13.47;6.50;;;8.90;99.90;;;;;;5043307;28;20171;-72
2022/10/13 07:01:32;;;;;;;10.20;7.40;;;8.90;99.90;;;;;;5053139;28;20496;-73
2022/10/13 07:03:57;;;;;;;14.73;7.67;;;9.00;99.90;;;;;;5052475;28;20592;-71
2022/10/13 07:06:23;;;;;;;16.13;8.80;;;9.00;99.90;;;;;;5052602;28;20510;-72
2022/10/13 07:08:49;;;;;;;12.40;7.20;;;9.10;99.90;;;;;;5052327;28;20167;-72
2022/10/13 07:11:15;;;;;;;11.17;6.20;;;9.10;99.90;;;;;;5043117;28;20258;-72
2022/10/13 07:13:41;;;;;;;12.63;6.93;;;9.30;99.90;;;;;;5032816;28;20171;-71
2022/10/13 07:16:08;;;;;;;13.80;8.00;;;9.40;99.90;;;;;;5034714;28;20475;-72
2022/10/13 07:18:34;;;;;;;13.93;8.07;;;9.50;99.90;;;;;;5031408;28;20414;-72
2022/10/13 07:21:01;;;;;;;13.10;7.00;;;9.50;99.90;;;;;;5031749;28;20799;-72
2022/10/13 07:23:27;;;;;;;16.73;7.30;;;9.70;99.90;;;;;;5032464;28;20453;-72
2022/10/13 07:25:55;;;;;;;10.00;7.80;;;9.80;99.90;;;;;;5034663;28;20450;-73
2022/10/13 07:28:22;;;;;;;13.70;7.37;;;9.80;99.90;;;;;;5034625;28;20488;-72
2022/10/13 07:30:48;;;;;;;11.43;8.70;;;9.80;99.90;;;;;;5034493;28;20962;-72
2022/10/13 07:33:14;;;;;;;9.80;7.03;;;10.00;99.90;;;;;;5038779;28;20412;-72
2022/10/13 07:35:40;;;;;;;12.43;7.10;;;10.30;99.90;;;;;;5052368;28;20527;-72
2022/10/13 07:38:06;;;;;;;10.00;8.07;;;10.50;99.90;;;;;;5048778;28;20459;-72
2022/10/13 07:40:32;;;;;;;13.53;7.47;;;10.70;99.90;;;;;;5052031;28;20206;-72
2022/10/13 07:42:58;;;;;;;9.77;7.23;;;10.90;99.90;;;;;;5052172;28;20493;-72
2022/10/13 07:45:24;;;;;;;11.37;6.80;;;10.70;99.90;;;;;;5051865;28;20496;-72
2022/10/13 07:47:49;;;;;;;10.10;7.90;;;10.70;99.90;;;;;;5051992;28;20167;-72
2022/10/13 07:50:15;;;;;;;16.33;7.80;;;10.90;99.90;;;;;;5048410;28;20449;-71
2022/10/13 07:52:41;;;;;;;11.73;7.03;;;11.10;99.90;;;;;;5051854;28;20178;-71
2022/10/13 07:55:07;;;;;;;9.93;8.17;;;11.50;99.90;;;;;;5051659;28;20630;-72
2022/10/13 07:57:32;;;;;;;11.37;6.80;;;11.40;99.90;;;;;;5036489;28;20169;-71
2022/10/13 07:59:58;;;;;;;9.17;8.00;;;11.90;99.90;;;;;;5035652;28;20798;-71
2022/10/13 08:02:23;;;;;;;13.07;7.40;;;11.80;99.90;;;;;;5051719;28;20176;-72
2022/10/13 08:04:49;;;;;;;10.50;7.40;;;12.20;99.90;;;;;;5051533;28;20177;-71
2022/10/13 08:07:15;;;;;;;8.53;7.50;;;12.30;99.90;;;;;;5051444;28;20205;-72
2022/10/13 08:09:41;;;;;;;9.17;6.87;;;12.90;99.90;;;;;;5051429;28;20192;-72
2022/10/13 08:12:06;;;;;;;8.67;7.37;;;13.90;99.90;;;;;;5042005;28;20419;-70
2022/10/13 08:14:32;;;;;;;8.17;7.37;;;14.40;99.90;;;;;;5051049;28;20223;-70
2022/10/13 08:16:57;;;;;;;8.47;7.30;;;15.10;99.90;;;;;;5052283;28;20167;-70
2022/10/13 08:19:25;;;;;;;10.80;7.40;;;14.80;99.90;;;;;;5039617;28;20626;-71
2022/10/13 08:21:51;;;;;;;13.13;7.23;;;14.10;99.90;;;;;;5048848;28;20699;-70
2022/10/13 08:24:18;;;;;;;9.20;7.47;;;13.40;99.90;;;;;;5050908;28;20503;-70
2022/10/13 08:26:45;;;;;;;9.37;7.17;;;13.30;99.90;;;;;;5047359;28;20460;-70
2022/10/13 08:29:11;;;;;;;7.43;6.73;;;13.10;99.90;;;;;;5051086;28;20425;-70
2022/10/13 08:31:37;;;;;;;9.20;7.20;;;12.90;99.90;;;;;;5033102;28;20473;-70
2022/10/13 08:34:03;;;;;;;10.23;6.43;;;12.90;99.90;;;;;;5033762;28;20430;-70
2022/10/13 08:36:28;;;;;;;10.03;6.80;;;12.80;99.90;;;;;;5033461;28;20185;-70
2022/10/13 08:38:54;;;;;;;10.37;7.00;;;12.90;99.90;;;;;;5030583;28;20545;-70
2022/10/13 08:41:23;;;;;;;8.53;7.40;;;13.10;99.90;;;;;;5019648;28;20685;-70
2022/10/13 08:43:52;;;;;;;11.73;8.10;;;13.10;99.90;;;;;;5030895;28;20177;-70
2022/10/13 08:46:43;;;;;;;13.73;6.90;;;13.30;99.90;;;;;;5032457;28;21098;-69
2022/10/13 08:49:09;;;;;;;12.33;9.17;;;13.30;99.90;;;;;;5029302;28;20429;-70
2022/10/13 08:51:35;;;;;;;10.37;7.23;;;13.50;99.90;;;;;;5030957;28;20416;-70
2022/10/13 08:54:01;;;;;;;11.80;7.63;;;13.40;99.90;;;;;;5031060;28;20205;-70
2022/10/13 08:56:30;;;;;;;9.63;7.50;;;13.50;99.90;;;;;;5030560;28;20433;-70
2022/10/13 08:58:56;;;;;;;8.90;7.50;;;13.40;99.90;;;;;;5028764;28;20462;-69
2022/10/13 09:01:31;;;;;;;11.07;8.30;;;13.50;99.90;;;;;;5030516;28;20538;-69
2022/10/13 09:04:24;;;;;;;11.93;8.23;;;13.50;99.90;;;;;;5031610;28;20392;-69
2022/10/13 09:06:57;;;;;;;13.67;8.30;;;13.90;99.90;;;;;;5030101;28;20818;-70
2022/10/13 09:09:23;;;;;;;16.90;9.00;;;14.00;99.90;;;;;;5030223;28;20511;-70
2022/10/13 09:11:49;;;;;;;15.97;6.93;;;14.10;99.90;;;;;;5031014;28;20889;-70
2022/10/13 09:14:28;;;;;;;11.70;7.00;;;14.50;99.90;;;;;;5031538;28;20561;-71
2022/10/13 09:16:56;;;;;;;9.50;8.50;;;14.60;99.90;;;;;;5030747;28;20894;-70
2022/10/13 09:19:37;;;;;;;9.20;7.80;;;14.20;99.90;;;;;;5030137;28;20454;-70
2022/10/13 09:22:19;;;;;;;10.97;8.40;;;14.00;99.90;;;;;;5031327;28;20426;-69
2022/10/13 09:24:44;;;;;;;13.87;7.57;;;14.00;99.90;;;;;;5030900;28;20443;-70
2022/10/13 09:27:13;;;;;;;11.13;7.90;;;14.30;99.90;;;;;;5032106;28;20887;-69
2022/10/13 09:29:39;;;;;;;10.87;8.40;;;14.50;99.90;;;;;;5031515;28;20719;-69
2022/10/13 09:32:22;;;;;;;15.90;8.37;;;14.30;99.90;;;;;;5035655;28;20772;-70
2022/10/13 09:34:48;;;;;;;10.33;9.17;;;14.00;99.90;;;;;;5031536;28;20411;-69
2022/10/13 09:37:29;;;;;;;10.90;7.80;;;14.30;99.90;;;;;;5035219;28;20442;-70
2022/10/13 09:40:13;;;;;;;9.80;8.07;;;14.00;99.90;;;;;;5034378;28;20464;-69
2022/10/13 09:42:39;;;;;;;12.37;8.67;;;14.20;99.90;;;;;;5045846;28;20948;-70
2022/10/13 09:45:20;;;;;;;10.87;8.27;;;14.10;99.90;;;;;;5042644;28;20918;-69
2022/10/13 09:47:49;;;;;;;13.93;9.57;;;14.20;99.90;;;;;;5028242;28;20749;-69
2022/10/13 09:50:18;;;;;;;12.50;7.73;;;14.40;99.90;;;;;;5042125;28;20504;-70
2022/10/13 09:52:46;;;;;;;12.00;8.50;;;14.50;99.90;;;;;;5053577;28;20422;-69
2022/10/13 09:55:30;;;;;;;14.80;9.80;;;14.60;99.90;;;;;;5039013;28;20805;-70
2022/10/13 09:58:04;;;;;;;12.77;9.60;;;14.60;99.90;;;;;;5038697;28;20414;-69
2022/10/13 10:00:31;;;;;;;15.13;10.33;;;14.80;99.90;;;;;;5034254;28;20527;-70
2022/10/13 10:03:01;;;;;;;13.80;8.77;;;14.90;99.90;;;;;;5035391;28;20412;-70
2022/10/13 10:05:37;;;;;;;12.97;8.93;;;14.90;99.90;;;;;;5033855;28;20499;-70
2022/10/13 10:08:19;;;;;;;12.87;9.13;;;15.00;99.90;;;;;;5040714;28;20410;-69
2022/10/13 10:10:46;;;;;;;12.83;8.97;;;14.80;99.90;;;;;;5043115;28;20424;-70
2022/10/13 10:13:12;;;;;;;12.57;9.47;;;14.90;99.90;;;;;;5040086;28;20480;-71
2022/10/13 10:15:51;;;;;;;10.93;9.27;;;15.00;99.90;;;;;;5051066;28;20435;-70
2022/10/13 10:18:38;;;;;;;16.03;10.43;;;15.20;99.90;;;;;;5051492;28;20450;-69
2022/10/13 10:21:13;;;;;;;15.50;9.57;;;15.10;99.90;;;;;;5040506;28;20451;-70
2022/10/13 10:23:47;;;;;;;17.53;11.20;;;15.10;99.90;;;;;;5043986;28;20423;-70
2022/10/13 10:26:24;;;;;;;13.40;9.47;;;15.30;99.90;;;;;;5049693;28;20544;-69
2022/10/13 10:28:57;;;;;;;14.67;10.40;;;15.20;99.90;;;;;;5031685;28;20427;-69
2022/10/13 10:31:52;;;;;;;14.53;9.60;;;15.10;99.90;;;;;;5043212;28;20539;-69
2022/10/13 10:34:36;;;;;;;15.47;9.47;;;15.40;99.90;;;;;;5030646;28;20421;-69
2022/10/13 10:37:18;;;;;;;15.37;10.37;;;15.40;99.90;;;;;;5048076;28;20439;-68
2022/10/13 10:39:48;;;;;;;12.87;9.50;;;15.50;99.90;;;;;;5032164;28;20459;-69
2022/10/13 10:42:23;;;;;;;11.70;9.47;;;15.80;99.90;;;;;;5043127;28;20933;-69
2022/10/13 10:44:51;;;;;;;15.43;10.80;;;15.90;99.90;;;;;;5039792;28;20417;-69
2022/10/13 10:47:25;;;;;;;13.03;11.03;;;16.00;99.90;;;;;;5050207;28;20470;-69
2022/10/13 10:50:00;;;;;;;16.77;11.07;;;16.10;99.90;;;;;;5043607;28;20437;-71
2022/10/13 10:52:47;;;;;;;13.70;9.10;;;16.30;99.90;;;;;;5053345;28;20904;-68
2022/10/13 10:55:19;;;;;;;14.67;10.20;;;16.40;99.90;;;;;;5037910;28;20847;-69
2022/10/13 10:58:13;;;;;;;12.37;10.17;;;16.20;99.90;;;;;;5027171;28;20498;-68
2022/10/13 11:00:54;;;;;;;15.87;12.43;;;16.30;99.90;;;;;;5032268;28;20473;-68
2022/10/13 11:03:53;;;;;;;21.83;14.60;;;16.20;99.90;;;;;;5032253;28;20416;-68
2022/10/13 11:06:34;;;;;;;17.70;12.20;;;16.20;99.90;;;;;;5031831;28;20577;-67
2022/10/13 11:09:00;;;;;;;13.53;10.63;;;16.60;99.90;;;;;;5018364;28;20904;-69
2022/10/13 11:11:26;;;;;;;12.47;9.07;;;16.50;99.90;;;;;;5031864;28;20439;-69
2022/10/13 11:13:57;;;;;;;14.33;10.43;;;16.40;99.90;;;;;;5041875;28;20970;-69
2022/10/13 11:16:31;;;;;;;13.30;10.10;;;16.30;99.90;;;;;;5032020;28;20229;-69
2022/10/13 11:19:06;;;;;;;15.83;9.77;;;16.40;99.90;;;;;;5031294;28;20403;-69
2022/10/13 11:21:56;;;;;;;18.40;12.57;;;16.80;99.90;;;;;;5032717;28;20458;-69
2022/10/13 11:24:45;;;;;;;12.33;8.80;;;17.30;99.90;;;;;;5032449;28;20428;-70
2022/10/13 11:27:13;;;;;;;12.30;9.30;;;17.10;99.90;;;;;;5032292;28;20703;-68
2022/10/13 11:29:42;;;;;;;16.03;11.60;;;17.00;99.90;;;;;;5042846;28;20462;-69
2022/10/13 11:35:06;;;;;;;12.53;9.20;;;17.70;99.90;;;;;;5025318;28;20418;-71
2022/10/13 11:37:56;;;;;;;14.33;8.60;;;17.70;99.90;;;;;;5041733;28;20416;-70
2022/10/13 11:40:58;;;;;;;12.47;8.87;;;17.40;99.90;;;;;;5010378;28;20499;-69
2022/10/13 11:44:01;;;;;;;9.20;7.73;;;17.00;99.90;;;;;;5010920;28;20430;-70
2022/10/13 11:46:51;;;;;;;9.80;8.23;;;16.90;99.90;;;;;;5032705;28;20508;-69
2022/10/13 11:49:31;;;;;;;10.13;7.77;;;16.90;99.90;;;;;;5036739;28;20435;-69
2022/10/13 11:52:18;;;;;;;10.20;8.23;;;17.00;99.90;;;;;;5046847;28;20794;-69
2022/10/13 11:54:53;;;;;;;12.57;8.87;;;17.00;99.90;;;;;;5037635;28;20410;-69
2022/10/13 11:57:24;;;;;;;16.83;8.67;;;17.00;99.90;;;;;;5041769;28;20471;-69
2022/10/13 11:59:54;;;;;;;10.17;8.60;;;17.00;99.90;;;;;;5052469;28;20437;-70
2022/10/13 12:02:22;;;;;;;11.50;8.13;;;16.90;99.90;;;;;;5038824;28;20489;-70
2022/10/13 12:05:18;;;;;;;9.50;7.10;;;17.10;99.90;;;;;;5027919;28;20482;-69
2022/10/13 12:07:46;;;;;;;9.27;6.50;;;17.20;99.90;;;;;;5035346;28;20428;-69
2022/10/13 12:10:37;;;;;;;10.87;7.43;;;17.20;99.90;;;;;;5030960;28;20515;-69
2022/10/13 12:13:04;;;;;;;10.60;6.63;;;17.40;99.90;;;;;;5050583;28;20427;-70
2022/10/13 12:15:40;;;;;;;9.90;7.90;;;17.20;99.90;;;;;;5051877;28;20413;-69
2022/10/13 12:18:24;;;;;;;7.90;7.10;;;17.20;99.90;;;;;;5051957;28;20849;-69
2022/10/13 12:20:57;;;;;;;9.77;7.03;;;17.10;99.90;;;;;;5065963;22;20427;-68
2022/10/13 12:23:23;;;;;;;10.50;7.17;;;17.20;99.90;;;;;;5013486;28;20905;-70
2022/10/13 12:25:56;;;;;;;13.93;7.13;;;17.30;99.90;;;;;;5013473;28;20454;-71
2022/10/13 12:28:24;;;;;;;10.10;6.70;;;17.50;99.90;;;;;;5011872;28;20403;-71
2022/10/13 12:30:58;;;;;;;7.00;5.60;;;17.50;99.90;;;;;;5013506;28;20470;-72
2022/10/13 12:33:34;;;;;;;7.60;6.50;;;17.40;99.90;;;;;;5033410;28;20395;-72
2022/10/13 12:36:16;;;;;;;9.30;6.20;;;17.70;99.90;;;;;;5033068;28;20407;-72
2022/10/13 12:38:47;;;;;;;9.07;5.73;;;17.90;99.90;;;;;;5031925;28;20419;-71
2022/10/13 12:41:17;;;;;;;8.50;6.00;;;17.80;99.90;;;;;;5070762;28;20468;-71
2022/10/13 12:43:44;;;;;;;10.07;5.87;;;17.80;99.90;;;;;;5038155;28;20415;-72
2022/10/13 12:46:09;;;;;;;7.23;5.40;;;17.60;99.90;;;;;;5037204;28;20454;-72
2022/10/13 12:48:37;;;;;;;10.10;6.00;;;17.60;99.90;;;;;;5032678;28;20913;-71
2022/10/13 12:51:28;;;;;;;7.87;5.70;;;17.50;99.90;;;;;;5019293;28;20276;-72
2022/10/13 12:53:54;;;;;;;7.07;5.20;;;17.50;99.90;;;;;;5024439;28;20474;-71
2022/10/13 12:56:31;;;;;;;7.80;5.37;;;17.30;99.90;;;;;;5040038;28;20441;-72
2022/10/13 12:58:58;;;;;;;5.33;4.53;;;17.40;99.90;;;;;;5054668;28;20193;-72
2022/10/13 13:01:33;;;;;;;5.97;5.33;;;17.30;99.90;;;;;;5055493;28;20420;-72
2022/10/13 13:04:20;;;;;;;8.83;6.10;;;17.20;99.90;;;;;;5054836;28;20492;-72